createdAt,value
2023-02-18T00:00:23.620Z,102192.81
2023-02-18T00:02:52.560Z,102194.06
2023-02-18T00:05:19.585Z,102187.50
2023-02-18T00:07:46.073Z,102181.53
2023-02-18T00:10:14.901Z,102183.44
2023-02-18T00:12:41.928Z,102196.56
2023-02-18T00:15:09.596Z,102184.63
2023-02-18T00:17:36.268Z,102182.44
2023-02-18T00:20:02.808Z,102174.94
2023-02-18T00:22:29.249Z,102172.88
2023-02-18T00:24:55.649Z,102172.41
2023-02-18T00:27:22.068Z,102176.09
2023-02-18T00:29:48.448Z,102173.47
2023-02-18T00:32:14.953Z,102174.38
2023-02-18T00:34:41.388Z,102176.28
2023-02-18T00:37:07.799Z,102178.28
2023-02-18T00:39:34.223Z,102174.91
2023-02-18T00:42:00.641Z,102175.09
2023-02-18T00:44:27.155Z,102173.50
2023-02-18T00:46:53.609Z,102175.91
2023-02-18T00:49:20.024Z,102173.94
2023-02-18T00:51:46.461Z,102174.78
2023-02-18T00:54:12.939Z,102173.50
2023-02-18T00:56:39.366Z,102170.13
2023-02-18T00:59:05.829Z,102171.84
2023-02-18T01:01:32.606Z,102163.56
2023-02-18T01:03:59.160Z,102166.34
2023-02-18T01:06:25.727Z,102161.97
2023-02-18T01:08:52.123Z,102157.19
2023-02-18T01:11:18.653Z,102151.88
2023-02-18T01:13:45.118Z,102159.97
2023-02-18T01:16:11.834Z,102154.41
2023-02-18T01:18:39.286Z,102161.50
2023-02-18T01:21:08.605Z,102161.72
2023-02-18T01:23:36.149Z,102156.06
2023-02-18T01:26:02.688Z,102155.97
2023-02-18T01:28:29.198Z,102159.88
2023-02-18T01:30:55.747Z,102160.19
2023-02-18T01:33:22.588Z,102156.06
2023-02-18T01:35:49.727Z,102162.31
2023-02-18T01:38:16.241Z,102158.00
2023-02-18T01:40:51.448Z,102162.09
2023-02-18T01:43:20.242Z,102165.16
2023-02-18T01:46:10.351Z,102159.00
2023-02-18T01:48:45.582Z,102148.13
2023-02-18T01:51:23.636Z,102142.53
2023-02-18T01:54:01.764Z,102144.06
2023-02-18T01:56:35.825Z,102148.53
2023-02-18T01:59:07.892Z,102140.56
2023-02-18T02:01:35.261Z,102136.63
2023-02-18T02:04:01.936Z,102145.28
2023-02-18T02:06:28.486Z,102146.47
2023-02-18T02:08:59.476Z,102144.34
2023-02-18T02:12:10.446Z,102147.38
2023-02-18T02:14:54.990Z,102143.50
2023-02-18T02:17:36.651Z,102145.53
2023-02-18T02:20:15.223Z,102142.63
2023-02-18T02:23:28.296Z,102135.38
2023-02-18T02:26:22.457Z,102137.31
2023-02-18T02:29:16.705Z,102138.53
2023-02-18T02:32:01.501Z,102139.00
2023-02-18T02:35:06.929Z,102142.03
2023-02-18T02:38:12.413Z,102134.44
2023-02-18T02:40:50.949Z,102136.25
2023-02-18T02:43:49.401Z,102142.03
2023-02-18T02:46:26.569Z,102140.38
2023-02-18T02:49:22.810Z,102136.25
2023-02-18T02:52:11.908Z,102134.53
2023-02-18T02:54:38.401Z,102130.81
2023-02-18T02:57:25.042Z,102129.22
2023-02-18T02:59:57.034Z,102137.66
2023-02-18T03:03:00.825Z,102139.41
2023-02-18T03:05:39.003Z,102137.72
2023-02-18T03:08:39.182Z,102134.88
2023-02-18T03:11:14.296Z,102135.00
2023-02-18T03:14:05.306Z,102130.81
2023-02-18T03:16:42.245Z,102126.66
2023-02-18T03:19:22.922Z,102117.78
2023-02-18T03:21:58.639Z,102109.00
2023-02-18T03:24:42.867Z,102103.91
2023-02-18T03:27:29.328Z,102109.13
2023-02-18T03:30:05.097Z,102118.06
2023-02-18T03:32:34.230Z,102120.84
2023-02-18T03:35:06.096Z,102113.19
2023-02-18T03:37:37.817Z,102117.38
2023-02-18T03:40:05.799Z,102114.84
2023-02-18T03:42:32.448Z,102113.72
2023-02-18T03:44:59.212Z,102119.75
2023-02-18T03:47:25.882Z,102122.81
2023-02-18T03:49:52.268Z,102130.22
2023-02-18T03:52:19.647Z,102127.53
2023-02-18T03:54:46.107Z,102127.03
2023-02-18T03:57:12.539Z,102133.63
2023-02-18T03:59:38.947Z,102134.28
2023-02-18T04:02:05.370Z,102134.91
2023-02-18T04:04:32.753Z,102131.78
2023-02-18T04:06:59.299Z,102131.50
2023-02-18T04:09:26.000Z,102136.88
2023-02-18T04:11:52.458Z,102136.75
2023-02-18T04:14:18.886Z,102126.88
2023-02-18T04:16:45.397Z,102130.22
2023-02-18T04:19:11.896Z,102134.63
2023-02-18T04:21:38.364Z,102131.97
2023-02-18T04:24:04.993Z,102131.38
2023-02-18T04:26:31.425Z,102132.91
2023-02-18T04:28:57.978Z,102133.88
2023-02-18T04:31:24.560Z,102129.41
2023-02-18T04:33:51.576Z,102140.69
2023-02-18T04:36:18.002Z,102135.75
2023-02-18T04:38:44.464Z,102135.41
2023-02-18T04:41:12.690Z,102138.22
2023-02-18T04:43:39.273Z,102137.84
2023-02-18T04:46:05.866Z,102145.50
2023-02-18T04:48:32.530Z,102135.53
2023-02-18T04:50:58.940Z,102137.81
2023-02-18T04:53:25.433Z,102131.13
2023-02-18T04:55:52.912Z,102135.72
2023-02-18T04:58:20.073Z,102135.91
2023-02-18T05:00:46.778Z,102135.75
2023-02-18T05:03:14.087Z,102130.97
2023-02-18T05:05:41.802Z,102134.31
2023-02-18T05:08:08.780Z,102135.47
2023-02-18T05:10:35.293Z,102132.63
2023-02-18T05:13:01.735Z,102131.91
2023-02-18T05:15:28.186Z,102142.22
2023-02-18T05:17:54.629Z,102126.81
2023-02-18T05:20:21.058Z,102140.47
2023-02-18T05:22:47.484Z,102133.31
2023-02-18T05:25:13.901Z,102133.41
2023-02-18T05:27:40.327Z,102132.13
2023-02-18T05:30:07.832Z,102130.31
2023-02-18T05:32:34.392Z,102128.97
2023-02-18T05:35:00.793Z,102126.19
2023-02-18T05:37:27.192Z,102134.03
2023-02-18T05:39:53.626Z,102138.44
2023-02-18T05:42:20.674Z,102138.72
2023-02-18T05:44:47.211Z,102136.31
2023-02-18T05:47:13.681Z,102135.94
2023-02-18T05:49:41.892Z,102138.09
2023-02-18T05:52:09.884Z,102141.00
2023-02-18T05:54:37.686Z,102150.75
2023-02-18T05:57:04.875Z,102143.63
2023-02-18T05:59:31.343Z,102159.38
2023-02-18T06:01:57.935Z,102149.59
2023-02-18T06:04:24.837Z,102156.34
2023-02-18T06:06:51.560Z,102160.13
2023-02-18T06:09:18.006Z,102159.38
2023-02-18T06:11:44.426Z,102155.91
2023-02-18T06:14:10.876Z,102160.06
2023-02-18T06:16:37.691Z,102156.09
2023-02-18T06:19:04.211Z,102158.75
2023-02-18T06:21:30.809Z,102156.03
2023-02-18T06:23:57.288Z,102155.56
2023-02-18T06:26:24.089Z,102163.91
2023-02-18T06:28:50.538Z,102164.22
2023-02-18T06:31:17.036Z,102162.69
2023-02-18T06:33:43.526Z,102165.19
2023-02-18T06:36:12.371Z,102162.66
2023-02-18T06:38:43.869Z,102166.72
2023-02-18T06:41:11.498Z,102171.97
2023-02-18T06:43:38.485Z,102165.91
2023-02-18T06:46:05.602Z,102176.56
2023-02-18T06:48:32.791Z,102177.22
2023-02-18T06:51:25.098Z,102174.25
2023-02-18T06:56:32.373Z,102188.97
2023-02-18T06:58:58.836Z,102178.69
2023-02-18T07:01:25.244Z,102178.16
2023-02-18T07:03:51.697Z,102180.84
2023-02-18T07:06:18.183Z,102185.22
2023-02-18T07:08:44.671Z,102189.34
2023-02-18T07:11:11.159Z,102200.63
2023-02-18T07:13:37.569Z,102202.22
2023-02-18T07:16:04.349Z,102213.41
2023-02-18T07:18:30.798Z,102209.03
2023-02-18T07:20:57.208Z,102211.06
2023-02-18T07:23:23.645Z,102208.31
2023-02-18T07:25:50.056Z,102204.50
2023-02-18T07:28:16.503Z,102203.03
2023-02-18T07:30:43.039Z,102199.88
2023-02-18T07:33:10.995Z,102197.69
2023-02-18T07:35:37.493Z,102200.69
2023-02-18T07:38:04.050Z,102211.50
2023-02-18T07:40:30.503Z,102203.56
2023-02-18T07:42:56.920Z,102198.91
2023-02-18T07:45:23.420Z,102202.78
2023-02-18T07:47:49.827Z,102197.81
2023-02-18T07:50:16.335Z,102197.69
2023-02-18T07:52:42.777Z,102196.00
2023-02-18T07:55:09.257Z,102198.38
2023-02-18T07:57:55.852Z,102198.31
2023-02-18T08:00:22.391Z,102192.44
2023-02-18T08:02:48.816Z,102194.88
2023-02-18T08:05:15.256Z,102179.06
2023-02-18T08:07:41.810Z,102187.19
2023-02-18T08:10:08.466Z,102177.13
2023-02-18T08:12:45.262Z,102184.88
2023-02-18T08:15:12.021Z,102174.16
2023-02-18T08:17:38.420Z,102182.69
2023-02-18T08:20:05.971Z,102178.88
2023-02-18T08:22:32.435Z,102185.69
2023-02-18T08:24:58.949Z,102185.78
2023-02-18T08:27:25.458Z,102173.72
2023-02-18T08:29:52.212Z,102184.59
2023-02-18T08:32:18.661Z,102180.16
2023-02-18T08:34:49.259Z,102179.56
2023-02-18T08:37:18.670Z,102179.47
2023-02-18T08:39:45.117Z,102183.38
2023-02-18T08:42:11.543Z,102187.47
2023-02-18T08:44:38.155Z,102177.50
2023-02-18T08:47:04.684Z,102186.75
2023-02-18T08:49:53.267Z,102179.47
2023-02-18T08:52:20.170Z,102180.97
2023-02-18T08:54:46.897Z,102188.66
2023-02-18T08:57:13.754Z,102189.09
2023-02-18T08:59:40.299Z,102186.94
2023-02-18T09:02:06.979Z,102191.59
2023-02-18T09:04:33.394Z,102193.66
2023-02-18T09:06:59.822Z,102197.34
2023-02-18T09:09:26.246Z,102194.81
2023-02-18T09:11:52.639Z,102196.13
2023-02-18T09:14:19.073Z,102197.81
2023-02-18T09:16:45.561Z,102193.41
2023-02-18T09:19:12.000Z,102186.81
2023-02-18T09:21:38.910Z,102185.94
2023-02-18T09:24:05.629Z,102181.41
2023-02-18T09:26:33.414Z,102176.13
2023-02-18T09:28:59.819Z,102178.13
2023-02-18T09:31:27.689Z,102180.72
2023-02-18T09:34:02.136Z,102179.47
2023-02-18T09:36:29.217Z,102174.19
2023-02-18T09:38:55.875Z,102185.19
2023-02-18T09:41:32.172Z,102173.44
2023-02-18T09:44:07.379Z,102175.22
2023-02-18T09:46:40.909Z,102176.16
2023-02-18T09:49:16.003Z,102171.00
2023-02-18T09:51:43.526Z,102170.22
2023-02-18T09:54:14.394Z,102165.75
2023-02-18T09:56:42.750Z,102162.78
2023-02-18T09:59:16.053Z,102161.25
2023-02-18T10:01:50.831Z,102151.69
2023-02-18T10:04:23.741Z,102150.19
2023-02-18T10:06:57.330Z,102150.88
2023-02-18T10:09:34.750Z,102150.78
2023-02-18T10:12:19.227Z,102143.22
2023-02-18T10:15:03.913Z,102145.56
2023-02-18T10:17:33.301Z,102143.25
2023-02-18T10:20:01.507Z,102138.25
2023-02-18T10:22:30.458Z,102137.84
2023-02-18T10:24:59.586Z,102130.28
2023-02-18T10:27:29.003Z,102136.28
2023-02-18T10:30:24.233Z,102133.06
2023-02-18T10:32:57.736Z,102133.75
2023-02-18T10:35:34.206Z,102130.56
2023-02-18T10:38:24.519Z,102127.41
2023-02-18T10:41:02.351Z,102117.78
2023-02-18T10:43:34.745Z,102116.19
2023-02-18T10:46:13.906Z,102098.28
2023-02-18T10:49:09.637Z,102106.84
2023-02-18T10:51:40.444Z,102105.56
2023-02-18T10:54:07.177Z,102102.81
2023-02-18T10:56:40.854Z,102098.25
2023-02-18T10:59:25.407Z,102089.50
2023-02-18T11:01:58.479Z,102091.59
2023-02-18T11:04:46.028Z,102087.50
2023-02-18T11:07:13.826Z,102085.00
2023-02-18T11:09:53.574Z,102075.34
2023-02-18T11:12:30.594Z,102072.75
2023-02-18T11:15:05.425Z,102067.22
2023-02-18T11:17:34.113Z,102060.97
2023-02-18T11:20:04.096Z,102052.25
2023-02-18T11:22:41.370Z,102053.44
2023-02-18T11:25:26.102Z,102048.47
2023-02-18T11:27:56.793Z,102052.88
2023-02-18T11:30:39.897Z,102046.06
2023-02-18T11:33:16.118Z,102032.59
2023-02-18T11:35:50.440Z,102027.88
2023-02-18T11:38:41.472Z,102030.22
2023-02-18T11:41:12.036Z,102023.19
2023-02-18T11:43:42.788Z,102026.25
2023-02-18T11:46:11.112Z,102014.53
2023-02-18T11:48:37.761Z,102014.72
2023-02-18T11:51:07.172Z,102010.13
2023-02-18T11:53:36.884Z,102004.81
2023-02-18T11:56:16.493Z,101999.97
2023-02-18T11:58:48.248Z,101999.34
2023-02-18T12:01:20.660Z,101987.63
2023-02-18T12:03:51.106Z,101988.25
2023-02-18T12:06:30.995Z,101992.81
2023-02-18T12:09:17.676Z,101980.31
2023-02-18T12:11:49.691Z,101970.28
2023-02-18T12:14:19.438Z,101972.66
2023-02-18T12:17:02.351Z,101955.00
2023-02-18T12:19:34.750Z,101947.13
2023-02-18T12:22:20.682Z,101947.75
2023-02-18T12:25:01.984Z,101936.16
2023-02-18T12:28:10.914Z,101929.75
2023-02-18T12:31:06.174Z,101931.38
2023-02-18T12:34:16.490Z,101929.97
2023-02-18T12:36:55.430Z,101919.97
2023-02-18T12:39:57.063Z,101910.66
2023-02-18T12:42:37.212Z,101902.09
2023-02-18T12:52:37.441Z,101895.72
2023-02-18T12:55:27.288Z,101884.88
2023-02-18T12:58:35.667Z,101888.81
2023-02-18T13:01:15.391Z,101882.06
2023-02-18T13:04:06.851Z,101869.69
2023-02-18T13:06:56.785Z,101865.38
2023-02-18T13:09:51.154Z,101861.03
2023-02-18T13:12:36.697Z,101851.72
2023-02-18T13:15:34.242Z,101850.03
2023-02-18T13:18:24.338Z,101842.13
2023-02-18T13:21:05.740Z,101831.13
2023-02-18T13:23:37.706Z,101829.31
2023-02-18T13:26:30.365Z,101819.56
2023-02-18T13:32:27.102Z,101807.75
2023-02-18T13:35:33.550Z,101811.06
2023-02-18T13:38:47.269Z,101801.34
2023-02-18T13:41:14.531Z,101806.69
2023-02-18T13:46:25.565Z,101799.88
2023-02-18T13:49:17.685Z,101786.75
2023-02-18T13:51:50.076Z,101777.94
2023-02-18T13:54:26.130Z,101777.94
2023-02-18T13:57:01.129Z,101776.66
2023-02-18T13:59:41.820Z,101774.00
2023-02-18T14:02:21.267Z,101768.63
2023-02-18T14:04:55.562Z,101773.06
2023-02-18T14:07:40.369Z,101767.25
2023-02-18T14:10:12.804Z,101769.00
2023-02-18T14:12:41.104Z,101766.69
2023-02-18T14:15:19.848Z,101766.44
2023-02-18T14:18:14.129Z,101769.75
2023-02-18T14:20:45.740Z,101768.06
2023-02-18T14:23:18.575Z,101760.19
2023-02-18T14:25:59.991Z,101767.09
2023-02-18T14:28:38.548Z,101758.34
2023-02-18T14:31:32.728Z,101751.13
2023-02-18T14:33:59.211Z,101762.31
2023-02-18T14:36:34.029Z,101762.78
2023-02-18T14:39:56.163Z,101760.44
2023-02-18T14:42:50.647Z,101762.00
2023-02-18T14:45:32.845Z,101752.81
2023-02-18T14:48:02.303Z,101749.28
2023-02-18T14:50:35.150Z,101751.38
2023-02-18T14:53:07.843Z,101752.91
2023-02-18T14:55:43.440Z,101746.72
2023-02-18T14:58:28.099Z,101749.53
2023-02-18T15:00:54.641Z,101736.56
2023-02-18T15:03:22.359Z,101730.31
2023-02-18T15:05:51.817Z,101737.44
2023-02-18T15:08:26.168Z,101736.06
2023-02-18T15:11:01.749Z,101730.47
2023-02-18T15:13:34.200Z,101725.63
2023-02-18T15:16:05.684Z,101726.03
2023-02-18T15:18:38.300Z,101724.25
2023-02-18T15:21:07.498Z,101729.75
2023-02-18T15:23:39.730Z,101725.94
2023-02-18T15:26:10.586Z,101725.03
2023-02-18T15:28:43.008Z,101720.88
2023-02-18T15:31:15.597Z,101725.69
2023-02-18T15:33:47.346Z,101721.69
2023-02-18T15:36:15.261Z,101718.69
2023-02-18T15:38:42.936Z,101718.06
2023-02-18T15:41:13.661Z,101720.94
2023-02-18T15:43:51.604Z,101713.78
2023-02-18T15:46:18.161Z,101714.69
2023-02-18T15:48:49.004Z,101719.59
2023-02-18T15:51:22.108Z,101723.25
2023-02-18T15:53:53.641Z,101721.13
2023-02-18T15:56:40.239Z,101719.81
2023-02-18T15:59:16.188Z,101714.97
2023-02-18T16:01:42.669Z,101722.88
2023-02-18T16:04:13.244Z,101723.88
2023-02-18T16:06:46.464Z,101724.88
2023-02-18T16:09:19.066Z,101714.72
2023-02-18T16:11:49.989Z,101720.25
2023-02-18T16:14:28.527Z,101708.66
2023-02-18T16:17:15.430Z,101723.88
2023-02-18T16:20:05.652Z,101717.25
2023-02-18T16:22:33.525Z,101720.66
2023-02-18T16:25:07.421Z,101721.00
2023-02-18T16:27:37.390Z,101724.72
2023-02-18T16:30:31.420Z,101726.16
2023-02-18T16:32:58.999Z,101725.44
2023-02-18T16:35:30.672Z,101722.09
2023-02-18T16:37:59.675Z,101726.53
2023-02-18T16:40:40.563Z,101725.19
2023-02-18T16:43:10.048Z,101733.28
2023-02-18T16:45:49.964Z,101737.09
2023-02-18T16:48:28.228Z,101734.69
2023-02-18T16:50:54.815Z,101739.31
2023-02-18T16:53:21.868Z,101736.59
2023-02-18T16:55:50.844Z,101744.69
2023-02-18T16:58:17.841Z,101740.00
2023-02-18T17:00:46.169Z,101743.38
2023-02-18T17:03:13.502Z,101737.31
2023-02-18T17:05:41.065Z,101745.06
2023-02-18T17:08:26.933Z,101744.31
2023-02-18T17:10:56.157Z,101747.06
2023-02-18T17:13:25.523Z,101743.09
2023-02-18T17:15:54.759Z,101755.25
2023-02-18T17:18:21.456Z,101752.03
2023-02-18T17:20:48.918Z,101751.84
2023-02-18T17:23:16.397Z,101743.50
2023-02-18T17:25:43.260Z,101757.16
2023-02-18T17:28:09.673Z,101760.59
2023-02-18T17:30:39.091Z,101756.50
2023-02-18T17:33:06.704Z,101761.19
2023-02-18T17:35:33.400Z,101763.75
2023-02-18T17:38:00.002Z,101770.13
2023-02-18T17:40:28.207Z,101764.50
2023-02-18T17:42:55.994Z,101764.78
2023-02-18T17:45:32.105Z,101762.31
2023-02-18T17:48:00.415Z,101770.94
2023-02-18T17:50:28.445Z,101775.88
2023-02-18T17:52:57.783Z,101777.06
2023-02-18T17:55:25.507Z,101780.84
2023-02-18T17:57:53.012Z,101777.03
2023-02-18T18:00:34.675Z,101777.91
2023-02-18T18:03:01.439Z,101771.94
2023-02-18T18:05:36.474Z,101776.59
2023-02-18T18:08:04.644Z,101781.13
2023-02-18T18:10:34.475Z,101775.66
2023-02-18T18:13:04.485Z,101777.91
2023-02-18T18:15:34.168Z,101772.59
2023-02-18T18:18:00.769Z,101774.84
2023-02-18T18:20:30.459Z,101770.44
2023-02-18T18:22:58.675Z,101770.34
2023-02-18T18:25:29.230Z,101764.13
2023-02-18T18:27:56.413Z,101775.28
2023-02-18T18:30:28.612Z,101774.59
2023-02-18T18:32:55.701Z,101772.31
2023-02-18T18:35:26.605Z,101781.34
2023-02-18T18:37:53.893Z,101772.56
2023-02-18T18:40:22.569Z,101774.78
2023-02-18T18:42:49.208Z,101772.00
2023-02-18T18:45:19.825Z,101771.31
2023-02-18T18:47:46.959Z,101780.94
2023-02-18T18:50:13.729Z,101783.78
2023-02-18T18:52:43.322Z,101778.56
2023-02-18T18:55:33.972Z,101775.66
2023-02-18T18:58:01.003Z,101773.16
2023-02-18T19:00:34.213Z,101770.66
2023-02-18T19:03:03.194Z,101778.38
2023-02-18T19:05:37.385Z,101776.72
2023-02-18T19:08:05.637Z,101769.44
2023-02-18T19:10:35.737Z,101774.22
2023-02-18T19:13:06.660Z,101779.63
2023-02-18T19:15:33.306Z,101781.69
2023-02-18T19:17:59.800Z,101781.59
2023-02-18T19:20:29.834Z,101785.56
2023-02-18T19:22:56.321Z,101784.09
2023-02-18T19:25:23.130Z,101784.34
2023-02-18T19:27:52.449Z,101791.38
2023-02-18T19:30:28.200Z,101790.53
2023-02-18T19:32:57.713Z,101792.59
2023-02-18T19:35:25.965Z,101785.63
2023-02-18T19:37:52.875Z,101797.25
2023-02-18T19:40:24.694Z,101789.97
2023-02-18T19:42:51.834Z,101796.22
2023-02-18T19:45:19.538Z,101794.41
2023-02-18T19:47:46.407Z,101792.94
2023-02-18T19:50:15.819Z,101800.31
2023-02-18T19:52:42.303Z,101795.19
2023-02-18T19:55:09.939Z,101800.72
2023-02-18T19:57:36.447Z,101797.44
2023-02-18T20:00:05.754Z,101799.50
2023-02-18T20:02:32.730Z,101798.75
2023-02-18T20:05:01.581Z,101801.16
2023-02-18T20:07:29.178Z,101798.06
2023-02-18T20:09:55.702Z,101796.47
2023-02-18T20:12:22.697Z,101800.50
2023-02-18T20:14:50.584Z,101806.75
2023-02-18T20:17:17.767Z,101803.41
2023-02-18T20:19:44.291Z,101808.41
2023-02-18T20:22:10.736Z,101811.16
2023-02-18T20:24:39.490Z,101809.00
2023-02-18T20:27:07.166Z,101804.28
2023-02-18T20:29:34.688Z,101805.00
2023-02-18T20:32:01.387Z,101809.03
2023-02-18T20:34:28.445Z,101805.75
2023-02-18T20:36:54.997Z,101801.00
2023-02-18T20:39:22.749Z,101809.31
2023-02-18T20:41:50.283Z,101815.03
2023-02-18T20:44:18.355Z,101808.09
2023-02-18T20:46:45.352Z,101809.50
2023-02-18T20:49:14.161Z,101812.25
2023-02-18T20:51:41.267Z,101810.25
2023-02-18T20:54:09.970Z,101814.97
2023-02-18T20:56:37.810Z,101817.03
2023-02-18T20:59:05.065Z,101815.81
2023-02-18T21:01:32.224Z,101825.41
2023-02-18T21:03:58.834Z,101821.53
2023-02-18T21:06:27.271Z,101819.16
2023-02-18T21:08:54.232Z,101811.50
2023-02-18T21:11:23.757Z,101817.41
2023-02-18T21:13:52.087Z,101812.13
2023-02-18T21:16:21.201Z,101809.19
2023-02-18T21:18:47.872Z,101805.66
2023-02-18T21:21:14.993Z,101812.59
2023-02-18T21:23:41.677Z,101811.50
2023-02-18T21:26:09.527Z,101809.31
2023-02-18T21:28:36.045Z,101811.91
2023-02-18T21:31:03.117Z,101808.44
2023-02-18T21:33:29.908Z,101810.66
2023-02-18T21:35:56.612Z,101811.41
2023-02-18T21:38:23.026Z,101816.22
2023-02-18T21:40:49.459Z,101819.13
2023-02-18T21:43:15.863Z,101818.22
2023-02-18T21:45:42.308Z,101812.56
2023-02-18T21:48:27.548Z,101810.91
2023-02-18T21:50:54.014Z,101814.75
2023-02-18T21:53:22.754Z,101812.38
2023-02-18T21:56:02.192Z,101811.66
2023-02-18T21:58:30.115Z,101815.50
2023-02-18T22:00:58.159Z,101814.19
2023-02-18T22:03:24.714Z,101810.00
2023-02-18T22:05:51.142Z,101814.75
2023-02-18T22:08:17.536Z,101812.16
2023-02-18T22:10:43.970Z,101814.94
2023-02-18T22:13:10.370Z,101810.19
2023-02-18T22:15:36.802Z,101810.91
2023-02-18T22:18:03.229Z,101809.03
2023-02-18T22:20:29.663Z,101807.56
2023-02-18T22:22:56.034Z,101811.59
2023-02-18T22:25:23.666Z,101809.41
2023-02-18T22:27:50.066Z,101811.19
2023-02-18T22:30:18.732Z,101821.41
2023-02-18T22:32:45.337Z,101814.84
2023-02-18T22:35:11.802Z,101817.25
2023-02-18T22:37:38.254Z,101811.94
2023-02-18T22:40:05.148Z,101818.38
2023-02-18T22:42:31.563Z,101816.72
2023-02-18T22:45:02.255Z,101819.63
2023-02-18T22:47:28.941Z,101816.91
2023-02-18T22:49:55.355Z,101811.59
2023-02-18T22:52:21.743Z,101814.88
2023-02-18T22:54:48.126Z,101813.25
2023-02-18T22:57:14.595Z,101811.97
2023-02-18T22:59:41.491Z,101808.69
2023-02-18T23:02:08.105Z,101799.00
2023-02-18T23:04:34.496Z,101807.94
2023-02-18T23:07:00.950Z,101806.06
2023-02-18T23:09:27.451Z,101809.38
2023-02-18T23:11:56.546Z,101807.50
2023-02-18T23:14:23.630Z,101799.13
2023-02-18T23:17:14.200Z,101808.03
2023-02-18T23:19:49.578Z,101808.19
2023-02-18T23:22:19.468Z,101805.66
2023-02-18T23:24:46.893Z,101800.00
2023-02-18T23:27:15.291Z,101804.59
2023-02-18T23:29:42.161Z,101798.38
2023-02-18T23:32:09.363Z,101796.88
2023-02-18T23:34:36.201Z,101793.94
2023-02-18T23:37:02.588Z,101798.13
2023-02-18T23:39:29.560Z,101797.06
2023-02-18T23:41:56.370Z,101797.63
2023-02-18T23:44:23.997Z,101798.31
2023-02-18T23:46:51.018Z,101800.16
2023-02-18T23:49:20.111Z,101791.75
2023-02-18T23:51:46.685Z,101795.19
2023-02-18T23:54:13.122Z,101802.75
2023-02-18T23:56:40.022Z,101800.66
2023-02-18T23:59:06.536Z,101791.94
